Página principal
METAR-TAF:

METAR-TAF

Aeroportos :

Bengasi, Líbia

latitude: 32-06N, longitude: 020-16E, altura: 131 m

METAR: em falta

Hora: 10:46 (08:46 UTC)

Previsão

O boletim foi feito há 27 horas e 46 minutos, às 05:00 UTC
Previsão válida de 18 às 06 UTC a 19 às 06 UTC
Vento 5 kt de sul
Visibilidade: 8000 m
Nuvens dispersasa uma altura de 2500 ft
Nuvens fragmentadasa uma altura de 8000 ft
Temporariamente
de 18 às 06 UTC a 18 às 24 UTC
Visibilidade: 5000 m
Nuvens fragmentadasa uma altura de 2000 ft
aguaceiros de chuva
Tornando-se
de 18 às 10 UTC a 18 às 12 UTC
Vento 12 kt de oes-sudoeste

TAF: HLLB 180500Z 1806/1906 18005KT 8000 SCT025 BKN080 TEMPO 1806/1824 5000 SHRA BKN020 BECMG 1810/1812 24012KT

Observações e previsões do tempo de mais de 4000 aeroportos (mensagens METAR e TAF).

As estações disponíveis são os pontos amarelos e vermelhos sobre o mapa.

Mova o rato sobre o mapa para ver o nome da estação.

Depois clique no ponto para visualizar as observações e previsões meteorológicas.

Para alterar o mapa : clique nos botões verdes com uma cruz preta para aumentar o zoom; no botão verde com uma pitada de zoom; ou nas setas verdes para mapas adjacentes.


METAR-TAF: